Time,TemperatureF,DewpointF,PressureIn,WindDirection,WindDirectionDegrees,WindSpeedMPH,WindSpeedGustMPH,Humidity,HourlyPrecipIn,Conditions,Clouds,dailyrainin,SoftwareType,DateUTC
2013-05-05 00:09:00,49.1,33.0,30.02,WSW,255,0.0,2.0,55,0.00,,,0.00,weatherlink.com 1.10,2013-05-05 06:09:00,
2013-05-05 00:24:00,48.2,34.0,30.01,North,360,3.0,8.0,58,0.00,,,0.00,weatherlink.com 1.10,2013-05-05 06:24:00,
2013-05-05 00:39:00,47.9,34.0,30.01,SSE,167,1.0,4.0,58,0.00,,,0.00,weatherlink.com 1.10,2013-05-05 06:39:00,
2013-05-05 00:54:00,45.6,34.0,30.01,ENE,61,7.0,8.0,64,0.00,,,0.00,weatherlink.com 1.10,2013-05-05 06:54:00,
2013-05-05 01:09:00,48.9,34.0,30.01,North,5,5.0,6.0,56,0.00,,,0.00,weatherlink.com 1.10,2013-05-05 07:09:00,
2013-05-05 01:24:00,48.6,33.0,30.01,East,93,0.0,5.0,56,0.00,,,0.00,weatherlink.com 1.10,2013-05-05 07:24:00,
2013-05-05 01:39:00,44.8,34.0,30.01,ENE,57,7.0,7.0,65,0.00,,,0.00,weatherlink.com 1.10,2013-05-05 07:39:00,
2013-05-05 01:54:00,45.8,33.0,30.00,NE,56,0.0,3.0,61,0.00,,,0.00,weatherlink.com 1.10,2013-05-05 07:54:00,
2013-05-05 02:09:00,44.7,33.0,30.00,NW,317,3.0,4.0,64,0.00,,,0.00,weatherlink.com 1.10,2013-05-05 08:09:00,
2013-05-05 02:24:00,43.4,33.0,29.99,NNW,333,0.0,2.0,67,0.00,,,0.00,weatherlink.com 1.10,2013-05-05 08:24:00,
2013-05-05 02:39:00,44.5,33.0,29.99,NNW,343,4.0,7.0,65,0.00,,,0.00,weatherlink.com 1.10,2013-05-05 08:39:00,
2013-05-05 02:54:00,49.6,35.0,29.99,NE,53,4.0,9.0,58,0.00,,,0.00,weatherlink.com 1.10,2013-05-05 08:54:00,
2013-05-05 03:09:00,46.1,34.0,29.99,NW,326,2.0,8.0,63,0.00,,,0.00,weatherlink.com 1.10,2013-05-05 09:09:00,
2013-05-05 03:24:00,44.3,34.0,29.99,NNW,344,8.0,10.0,67,0.00,,,0.00,weatherlink.com 1.10,2013-05-05 09:24:00,
2013-05-05 03:39:00,43.1,34.0,29.99,SSE,167,0.0,3.0,69,0.00,,,0.00,weatherlink.com 1.10,2013-05-05 09:39:00,
2013-05-05 03:54:00,41.8,33.0,29.98,ESE,107,0.0,3.0,72,0.00,,,0.00,weatherlink.com 1.10,2013-05-05 09:54:00,
2013-05-05 04:09:00,42.0,33.0,29.98,East,80,0.0,3.0,71,0.00,,,0.00,weatherlink.com 1.10,2013-05-05 10:09:00,
2013-05-05 04:24:00,40.5,33.0,29.98,East,80,0.0,1.0,74,0.00,,,0.00,weatherlink.com 1.10,2013-05-05 10:24:00,
2013-05-05 04:39:00,40.7,34.0,29.98,NE,46,0.0,0.0,76,0.00,,,0.00,weatherlink.com 1.10,2013-05-05 10:39:00,
2013-05-05 04:55:00,39.5,34.0,29.98,NE,46,0.0,0.0,79,0.00,,,0.00,weatherlink.com 1.10,2013-05-05 10:55:00,
2013-05-05 05:10:00,40.5,34.0,29.98,North,5,5.0,5.0,77,0.00,,,0.00,weatherlink.com 1.10,2013-05-05 11:10:00,
2013-05-05 05:25:00,40.4,34.0,29.98,ENE,69,4.0,8.0,77,0.00,,,0.00,weatherlink.com 1.10,2013-05-05 11:25:00,
2013-05-05 05:40:00,40.4,34.0,29.97,ENE,74,0.0,3.0,77,0.00,,,0.00,weatherlink.com 1.10,2013-05-05 11:40:00,
2013-05-05 05:55:00,39.9,34.0,29.97,SE,130,0.0,3.0,78,0.00,,,0.00,weatherlink.com 1.10,2013-05-05 11:55:00,
2013-05-05 06:10:00,39.7,33.0,29.97,ESE,122,2.0,4.0,78,0.00,,,0.00,weatherlink.com 1.10,2013-05-05 12:10:00,
2013-05-05 06:25:00,39.4,33.0,29.97,ESE,107,0.0,3.0,79,0.00,,,0.00,weatherlink.com 1.10,2013-05-05 12:25:00,
2013-05-05 06:40:00,38.8,33.0,29.97,ESE,107,2.0,2.0,79,0.00,,,0.00,weatherlink.com 1.10,2013-05-05 12:40:00,
2013-05-05 06:55:00,38.1,33.0,29.97,ESE,107,0.0,2.0,82,0.00,,,0.00,weatherlink.com 1.10,2013-05-05 12:55:00,
2013-05-05 07:10:00,37.7,33.0,29.97,ESE,107,0.0,0.0,82,0.00,,,0.00,weatherlink.com 1.10,2013-05-05 13:10:00,
2013-05-05 07:25:00,38.0,33.0,29.97,ESE,107,0.0,1.0,83,0.00,,,0.00,weatherlink.com 1.10,2013-05-05 13:25:00,
2013-05-05 07:40:00,40.1,34.0,29.97,ESE,107,0.0,1.0,80,0.00,,,0.00,weatherlink.com 1.10,2013-05-05 13:40:00,
2013-05-05 07:55:00,41.7,35.0,29.97,NE,36,0.0,3.0,77,0.00,,,0.00,weatherlink.com 1.10,2013-05-05 13:55:00,
2013-05-05 08:10:00,43.2,36.0,29.97,NE,34,0.0,1.0,75,0.00,,,0.00,weatherlink.com 1.10,2013-05-05 14:10:00,
2013-05-05 08:25:00,45.2,37.0,29.98,ENE,71,1.0,2.0,72,0.00,,,0.00,weatherlink.com 1.10,2013-05-05 14:25:00,
2013-05-05 08:40:00,46.4,37.0,29.98,East,90,0.0,3.0,69,0.00,,,0.00,weatherlink.com 1.10,2013-05-05 14:40:00,
2013-05-05 08:55:00,48.3,37.0,29.97,East,94,0.0,3.0,65,0.00,,,0.00,weatherlink.com 1.10,2013-05-05 14:55:00,
2013-05-05 09:10:00,49.9,38.0,29.97,East,96,1.0,3.0,63,0.00,,,0.00,weatherlink.com 1.10,2013-05-05 15:10:00,
2013-05-05 09:25:00,51.0,37.0,29.97,East,92,0.0,0.0,60,0.00,,,0.00,weatherlink.com 1.10,2013-05-05 15:25:00,
2013-05-05 09:40:00,52.3,38.0,29.97,NE,52,0.0,3.0,58,0.00,,,0.00,weatherlink.com 1.10,2013-05-05 15:40:00,
2013-05-05 09:55:00,53.9,38.0,29.96,NW,316,0.0,3.0,55,0.00,,,0.00,weatherlink.com 1.10,2013-05-05 15:55:00,
2013-05-05 10:11:00,55.3,37.0,29.95,SSW,213,1.0,6.0,51,0.00,,,0.00,weatherlink.com 1.10,2013-05-05 16:11:00,
2013-05-05 10:26:00,56.4,38.0,29.94,WNW,290,2.0,6.0,50,0.00,,,0.00,weatherlink.com 1.10,2013-05-05 16:26:00,
2013-05-05 10:41:00,57.5,38.0,29.93,SSW,208,3.0,7.0,48,0.00,,,0.00,weatherlink.com 1.10,2013-05-05 16:41:00,
2013-05-05 10:56:00,58.9,38.0,29.93,West,270,7.0,11.0,46,0.00,,,0.00,weatherlink.com 1.10,2013-05-05 16:56:00,
2013-05-05 11:11:00,59.8,38.0,29.92,WNW,282,3.0,10.0,45,0.00,,,0.00,weatherlink.com 1.10,2013-05-05 17:11:00,
2013-05-05 11:26:00,60.4,38.0,29.91,WSW,243,6.0,9.0,43,0.00,,,0.00,weatherlink.com 1.10,2013-05-05 17:26:00,
2013-05-05 11:41:00,60.9,37.0,29.91,NW,311,6.0,11.0,42,0.00,,,0.00,weatherlink.com 1.10,2013-05-05 17:41:00,
2013-05-05 11:56:00,61.8,38.0,29.90,WNW,293,3.0,12.0,42,0.00,,,0.00,weatherlink.com 1.10,2013-05-05 17:56:00,
2013-05-05 12:11:00,62.2,38.0,29.89,West,263,3.0,14.0,41,0.00,,,0.00,weatherlink.com 1.10,2013-05-05 18:11:00,
2013-05-05 12:26:00,62.7,37.0,29.89,West,279,3.0,12.0,39,0.00,,,0.00,weatherlink.com 1.10,2013-05-05 18:26:00,
2013-05-05 12:41:00,64.8,37.0,29.88,West,267,4.0,13.0,36,0.00,,,0.00,weatherlink.com 1.10,2013-05-05 18:41:00,
2013-05-05 12:56:00,65.8,34.0,29.87,North,355,6.0,16.0,31,0.00,,,0.00,weatherlink.com 1.10,2013-05-05 18:56:00,
2013-05-05 13:11:00,66.5,33.0,29.87,NE,40,12.0,16.0,29,0.00,,,0.00,weatherlink.com 1.10,2013-05-05 19:11:00,
2013-05-05 13:26:00,67.3,32.0,29.85,NE,40,7.0,16.0,27,0.00,,,0.00,weatherlink.com 1.10,2013-05-05 19:26:00,
2013-05-05 13:41:00,67.2,32.0,29.85,North,9,7.0,14.0,27,0.00,,,0.00,weatherlink.com 1.10,2013-05-05 19:41:00,
2013-05-05 13:56:00,68.2,36.0,29.84,North,355,9.0,14.0,31,0.00,,,0.00,weatherlink.com 1.10,2013-05-05 19:56:00,
2013-05-05 14:12:00,67.6,32.0,29.83,NNW,341,9.0,15.0,27,0.00,,,0.00,weatherlink.com 1.10,2013-05-05 20:12:00,
2013-05-05 14:27:00,68.8,32.0,29.83,NE,55,10.0,18.0,26,0.00,,,0.00,weatherlink.com 1.10,2013-05-05 20:27:00,
2013-05-05 14:42:00,69.1,33.0,29.82,NE,52,10.0,15.0,26,0.00,,,0.00,weatherlink.com 1.10,2013-05-05 20:42:00,
2013-05-05 14:57:00,70.0,33.0,29.82,SW,215,4.0,17.0,25,0.00,,,0.00,weatherlink.com 1.10,2013-05-05 20:57:00,
2013-05-05 15:12:00,69.8,32.0,29.81,East,90,0.0,14.0,25,0.00,,,0.00,weatherlink.com 1.10,2013-05-05 21:12:00,
2013-05-05 15:27:00,70.1,32.0,29.80,East,86,0.0,13.0,24,0.00,,,0.00,weatherlink.com 1.10,2013-05-05 21:27:00,
2013-05-05 15:42:00,71.5,32.0,29.80,NNE,30,5.0,12.0,23,0.00,,,0.00,weatherlink.com 1.10,2013-05-05 21:42:00,
2013-05-05 15:57:00,72.4,32.0,29.79,WNW,294,6.0,8.0,23,0.00,,,0.00,weatherlink.com 1.10,2013-05-05 21:57:00,
2013-05-05 16:12:00,71.9,35.0,29.79,NW,313,0.0,11.0,26,0.00,,,0.00,weatherlink.com 1.10,2013-05-05 22:12:00,
2013-05-05 16:27:00,72.5,31.0,29.78,NE,52,14.0,15.0,22,0.00,,,0.00,weatherlink.com 1.10,2013-05-05 22:27:00,
2013-05-05 16:42:00,73.2,31.0,29.76,NE,53,2.0,11.0,21,0.00,,,0.00,weatherlink.com 1.10,2013-05-05 22:42:00,
2013-05-05 16:57:00,73.2,32.0,29.77,NW,315,3.0,9.0,22,0.00,,,0.00,weatherlink.com 1.10,2013-05-05 22:57:00,
2013-05-05 17:12:00,73.0,31.0,29.76,NE,41,6.0,14.0,21,0.00,,,0.00,weatherlink.com 1.10,2013-05-05 23:12:00,
2013-05-05 17:27:00,72.7,35.0,29.75,WNW,300,2.0,11.0,25,0.00,,,0.00,weatherlink.com 1.10,2013-05-05 23:27:00,
2013-05-05 17:42:00,73.1,33.0,29.75,ENE,59,10.0,16.0,23,0.00,,,0.00,weatherlink.com 1.10,2013-05-05 23:42:00,
2013-05-05 17:57:00,73.4,30.0,29.74,SE,128,4.0,10.0,20,0.00,,,0.00,weatherlink.com 1.10,2013-05-05 23:57:00,
2013-05-05 18:12:00,73.4,31.0,29.73,North,355,9.0,17.0,21,0.00,,,0.00,weatherlink.com 1.10,2013-05-06 00:12:00,
2013-05-05 18:27:00,73.3,30.0,29.73,East,82,6.0,13.0,20,0.00,,,0.00,weatherlink.com 1.10,2013-05-06 00:27:00,
2013-05-05 18:42:00,72.9,32.0,29.73,NE,38,8.0,13.0,22,0.00,,,0.00,weatherlink.com 1.10,2013-05-06 00:42:00,
2013-05-05 18:57:00,72.6,30.0,29.73,ENE,61,7.0,12.0,21,0.00,,,0.00,weatherlink.com 1.10,2013-05-06 00:57:00,
2013-05-05 19:12:00,72.4,31.0,29.73,NNE,22,7.0,11.0,22,0.00,,,0.00,weatherlink.com 1.10,2013-05-06 01:12:00,
2013-05-05 19:28:00,72.0,30.0,29.72,NNE,17,6.0,11.0,21,0.00,,,0.00,weatherlink.com 1.10,2013-05-06 01:28:00,
2013-05-05 19:42:00,71.6,31.0,29.72,NNE,17,8.0,12.0,22,0.00,,,0.00,weatherlink.com 1.10,2013-05-06 01:42:00,
2013-05-05 19:57:00,71.2,33.0,29.72,NNE,25,4.0,7.0,24,0.00,,,0.00,weatherlink.com 1.10,2013-05-06 01:57:00,
2013-05-05 20:12:00,69.9,33.0,29.72,North,5,4.0,9.0,26,0.00,,,0.00,weatherlink.com 1.10,2013-05-06 02:12:00,
2013-05-05 20:27:00,68.1,34.0,29.73,NNW,329,3.0,7.0,28,0.00,,,0.00,weatherlink.com 1.10,2013-05-06 02:27:00,
2013-05-05 20:42:00,65.3,34.0,29.73,NNW,346,4.0,5.0,31,0.00,,,0.00,weatherlink.com 1.10,2013-05-06 02:42:00,
2013-05-05 20:57:00,62.3,33.0,29.73,NNE,26,3.0,6.0,33,0.00,,,0.00,weatherlink.com 1.10,2013-05-06 02:57:00,
2013-05-05 21:12:00,60.3,33.0,29.73,North,355,0.0,6.0,36,0.00,,,0.00,weatherlink.com 1.10,2013-05-06 03:12:00,
2013-05-05 21:27:00,59.8,33.0,29.74,North,355,0.0,0.0,37,0.00,,,0.00,weatherlink.com 1.10,2013-05-06 03:27:00,
2013-05-05 21:42:00,58.3,34.0,29.74,North,355,0.0,1.0,40,0.00,,,0.00,weatherlink.com 1.10,2013-05-06 03:42:00,
2013-05-05 21:57:00,58.3,34.0,29.75,NNW,327,0.0,6.0,40,0.00,,,0.00,weatherlink.com 1.10,2013-05-06 03:57:00,
2013-05-05 22:12:00,58.3,34.0,29.75,North,355,4.0,5.0,40,0.00,,,0.00,weatherlink.com 1.10,2013-05-06 04:12:00,
2013-05-05 22:27:00,57.9,35.0,29.75,NNW,328,2.0,8.0,43,0.00,,,0.00,weatherlink.com 1.10,2013-05-06 04:27:00,
2013-05-05 22:42:00,57.8,35.0,29.75,North,355,0.0,7.0,42,0.00,,,0.00,weatherlink.com 1.10,2013-05-06 04:42:00,
2013-05-05 22:57:00,58.3,34.0,29.76,NE,36,2.0,4.0,41,0.00,,,0.00,weatherlink.com 1.10,2013-05-06 04:57:00,
2013-05-05 23:12:00,57.8,35.0,29.76,NW,313,0.0,6.0,42,0.00,,,0.00,weatherlink.com 1.10,2013-05-06 05:12:00,
2013-05-05 23:27:00,55.5,35.0,29.76,SSE,165,0.0,3.0,46,0.00,,,0.00,weatherlink.com 1.10,2013-05-06 05:27:00,
2013-05-05 23:42:00,53.9,35.0,29.77,ESE,105,2.0,3.0,49,0.00,,,0.00,weatherlink.com 1.10,2013-05-06 05:42:00,
2013-05-05 23:57:00,53.4,35.0,29.77,East,86,1.0,3.0,50,0.00,,,0.00,weatherlink.com 1.10,2013-05-06 05:57:00,